createdAt,value
2022-11-28T00:01:51.825Z,5.44
2022-11-28T00:05:53.939Z,5.38
2022-11-28T00:09:56.256Z,5.36
2022-11-28T00:13:58.361Z,5.32
2022-11-28T00:18:00.447Z,5.30
2022-11-28T00:22:02.553Z,5.31
2022-11-28T00:26:23.457Z,5.34
2022-11-28T00:30:25.495Z,5.33
2022-11-28T00:34:27.499Z,5.28
2022-11-28T00:38:30.349Z,5.25
2022-11-28T00:42:32.389Z,5.24
2022-11-28T00:46:34.424Z,5.24
2022-11-28T00:50:36.409Z,5.26
2022-11-28T00:54:38.482Z,5.24
2022-11-28T00:58:41.172Z,5.21
2022-11-28T01:02:43.429Z,5.19
2022-11-28T01:06:48.404Z,5.14
2022-11-28T01:10:50.442Z,5.06
2022-11-28T01:14:52.461Z,5.02
2022-11-28T01:18:54.636Z,4.99
2022-11-28T01:22:56.624Z,4.92
2022-11-28T01:26:59.051Z,4.84
2022-11-28T01:31:09.785Z,4.83
2022-11-28T01:35:12.073Z,4.86
2022-11-28T01:39:15.661Z,4.92
2022-11-28T01:43:18.279Z,5.07
2022-11-28T01:47:27.754Z,5.02
2022-11-28T01:51:30.236Z,5.01
2022-11-28T01:55:44.310Z,5.01
2022-11-28T01:59:56.870Z,5.10
2022-11-28T02:03:59.849Z,5.15
2022-11-28T02:08:02.719Z,5.17
2022-11-28T02:12:27.930Z,5.20
2022-11-28T02:16:54.219Z,5.24
2022-11-28T02:21:44.352Z,5.27
2022-11-28T02:26:14.222Z,5.25
2022-11-28T02:30:34.088Z,5.22
2022-11-28T02:34:46.675Z,5.20
2022-11-28T02:39:13.542Z,5.22
2022-11-28T02:43:22.975Z,5.23
2022-11-28T02:47:34.042Z,5.20
2022-11-28T02:51:45.996Z,5.18
2022-11-28T02:55:51.216Z,5.16
2022-11-28T02:59:55.399Z,5.10
2022-11-28T03:04:15.960Z,5.07
2022-11-28T03:08:39.735Z,5.10
2022-11-28T03:12:59.440Z,5.12
2022-11-28T03:17:07.602Z,5.14
2022-11-28T03:21:22.419Z,5.13
2022-11-28T03:25:47.990Z,5.14
2022-11-28T03:29:54.907Z,5.09
2022-11-28T03:33:59.547Z,5.10
2022-11-28T03:38:07.026Z,5.05
2022-11-28T03:42:13.352Z,5.04
2022-11-28T03:46:19.912Z,5.00
2022-11-28T03:50:29.068Z,5.24
2022-11-28T03:54:36.404Z,5.21
2022-11-28T03:58:54.076Z,5.15
2022-11-28T04:02:56.109Z,5.12
2022-11-28T04:07:28.268Z,5.09
2022-11-28T04:11:37.647Z,5.10
2022-11-28T04:15:53.383Z,5.09
2022-11-28T04:20:04.072Z,5.08
2022-11-28T04:24:14.442Z,5.06
2022-11-28T04:28:20.817Z,5.02
2022-11-28T04:32:25.208Z,5.02
2022-11-28T04:36:29.007Z,4.99
2022-11-28T04:40:37.097Z,4.99
2022-11-28T04:44:57.257Z,4.96
2022-11-28T04:48:59.465Z,4.95
2022-11-28T04:53:18.518Z,4.92
2022-11-28T04:57:43.221Z,4.95
2022-11-28T05:01:48.511Z,4.95
2022-11-28T05:05:51.509Z,4.96
2022-11-28T05:09:55.557Z,4.95
2022-11-28T05:13:57.776Z,4.93
2022-11-28T05:17:59.966Z,4.91
2022-11-28T05:22:02.025Z,4.91
2022-11-28T05:26:08.962Z,4.92
2022-11-28T05:30:11.876Z,4.88
2022-11-28T05:34:13.918Z,4.87
2022-11-28T05:38:15.966Z,4.86
2022-11-28T05:42:17.962Z,4.87
2022-11-28T05:46:20.422Z,4.91
2022-11-28T05:50:22.450Z,4.88
2022-11-28T05:54:24.509Z,4.87
2022-11-28T05:58:26.492Z,4.84
2022-11-28T06:02:28.536Z,4.84
2022-11-28T06:06:32.874Z,4.84
2022-11-28T06:10:35.469Z,4.82
2022-11-28T06:14:37.597Z,4.81
2022-11-28T06:18:40.127Z,4.81
2022-11-28T06:22:42.123Z,4.83
2022-11-28T06:26:44.185Z,4.83
2022-11-28T06:30:46.221Z,4.82
2022-11-28T06:34:48.271Z,4.86
2022-11-28T06:38:50.362Z,4.85
2022-11-28T06:42:52.387Z,4.84
2022-11-28T06:46:55.115Z,4.85
2022-11-28T06:51:05.307Z,4.87
2022-11-28T06:55:07.650Z,4.90
2022-11-28T06:59:11.505Z,4.84
2022-11-28T07:03:13.503Z,4.82
2022-11-28T07:07:16.759Z,4.97
2022-11-28T07:11:24.831Z,5.49
2022-11-28T07:15:27.524Z,5.48
2022-11-28T07:19:29.535Z,5.33
2022-11-28T07:23:31.541Z,5.25
2022-11-28T07:27:33.534Z,5.19
2022-11-28T07:31:37.060Z,5.13
2022-11-28T07:35:39.163Z,5.10
2022-11-28T07:39:42.592Z,4.97
2022-11-28T07:43:46.673Z,4.88
2022-11-28T07:47:48.767Z,4.86
2022-11-28T07:51:50.746Z,4.99
2022-11-28T07:55:52.812Z,5.08
2022-11-28T07:59:54.853Z,5.06
2022-11-28T08:03:57.318Z,5.04
2022-11-28T08:07:59.563Z,5.11
2022-11-28T08:12:01.667Z,5.21
2022-11-28T08:16:09.783Z,5.26
2022-11-28T08:20:12.187Z,5.24
2022-11-28T08:24:14.852Z,5.21
2022-11-28T08:28:16.839Z,5.29
2022-11-28T08:32:18.912Z,5.42
2022-11-28T08:36:21.645Z,5.48
2022-11-28T08:40:23.640Z,5.54
2022-11-28T08:44:27.239Z,5.60
2022-11-28T08:48:30.358Z,5.66
2022-11-28T08:52:32.874Z,5.75
2022-11-28T08:56:34.888Z,5.88
2022-11-28T09:00:37.066Z,5.98
2022-11-28T09:04:39.124Z,6.04
2022-11-28T09:08:41.478Z,6.07
2022-11-28T09:12:43.446Z,6.07
2022-11-28T09:16:45.631Z,6.08
2022-11-28T09:20:47.684Z,6.08
2022-11-28T09:24:49.801Z,6.06
2022-11-28T09:28:52.592Z,6.06
2022-11-28T09:32:54.654Z,6.06
2022-11-28T09:36:59.678Z,6.08
2022-11-28T09:41:21.733Z,6.12
2022-11-28T09:45:24.722Z,6.20
2022-11-28T09:49:44.588Z,6.20
2022-11-28T09:53:59.912Z,6.27
2022-11-28T09:58:11.880Z,6.40
2022-11-28T10:02:39.706Z,6.49
2022-11-28T10:06:47.758Z,6.68
2022-11-28T10:11:09.510Z,6.86
2022-11-28T10:15:39.868Z,7.04
2022-11-28T10:19:56.155Z,7.09
2022-11-28T10:24:03.609Z,7.13
2022-11-28T10:28:09.854Z,7.13
2022-11-28T10:32:18.501Z,7.15
2022-11-28T10:36:34.499Z,7.18
2022-11-28T10:41:04.736Z,7.21
2022-11-28T10:45:14.827Z,7.25
2022-11-28T10:49:44.447Z,7.33
2022-11-28T10:54:03.919Z,7.44
2022-11-28T10:58:27.287Z,7.54
2022-11-28T11:02:45.016Z,7.69
2022-11-28T11:07:08.436Z,7.82
2022-11-28T11:11:29.438Z,7.94
2022-11-28T11:15:33.439Z,7.98
2022-11-28T11:19:39.611Z,7.99
2022-11-28T11:23:42.522Z,7.97
2022-11-28T11:28:00.903Z,8.02
2022-11-28T11:32:06.390Z,8.08
2022-11-28T11:36:22.702Z,8.15
2022-11-28T11:40:27.639Z,8.14
2022-11-28T11:44:34.249Z,8.15
2022-11-28T11:48:51.898Z,8.16
2022-11-28T11:53:01.259Z,8.14
2022-11-28T11:57:31.495Z,8.14
2022-11-28T12:01:26.631Z,8.13
2022-11-28T12:06:12.713Z,8.18
2022-11-28T12:10:16.163Z,8.16
2022-11-28T12:14:23.885Z,8.19
2022-11-28T12:18:46.080Z,8.20
2022-11-28T12:23:33.087Z,8.23
2022-11-28T12:27:58.005Z,8.30
2022-11-28T12:32:07.833Z,8.33
2022-11-28T12:36:32.617Z,8.30
2022-11-28T12:40:56.205Z,8.32
2022-11-28T12:45:23.341Z,8.35
2022-11-28T12:49:52.160Z,8.34
2022-11-28T12:53:57.188Z,8.31
2022-11-28T12:58:09.170Z,8.26
2022-11-28T13:02:30.193Z,8.24
2022-11-28T13:06:51.544Z,8.22
2022-11-28T13:11:13.708Z,8.18
2022-11-28T13:15:24.767Z,8.16
2022-11-28T13:19:38.915Z,8.12
2022-11-28T13:23:47.923Z,8.10
2022-11-28T13:28:02.712Z,8.13
2022-11-28T13:32:13.928Z,8.04
2022-11-28T13:41:22.874Z,7.84
2022-11-28T13:45:42.131Z,7.80
2022-11-28T13:49:44.176Z,7.74
2022-11-28T13:53:47.597Z,7.68
2022-11-28T13:57:49.657Z,7.59
2022-11-28T14:02:01.039Z,7.57
2022-11-28T14:06:07.048Z,7.56
2022-11-28T14:10:30.438Z,7.52
2022-11-28T14:14:54.167Z,7.56
2022-11-28T14:19:25.389Z,7.53
2022-11-28T14:23:52.620Z,7.55
2022-11-28T14:28:14.630Z,7.58
2022-11-28T14:32:34.064Z,7.62
2022-11-28T14:36:43.637Z,7.65
2022-11-28T14:41:04.619Z,7.64
2022-11-28T14:45:43.396Z,7.63
2022-11-28T14:49:46.508Z,7.65
2022-11-28T14:53:49.822Z,7.67
2022-11-28T14:57:57.893Z,7.67
2022-11-28T15:02:31.816Z,7.69
2022-11-28T15:06:37.906Z,7.71
2022-11-28T15:11:08.119Z,7.69
2022-11-28T15:15:13.700Z,7.71
2022-11-28T15:19:23.164Z,7.67
2022-11-28T15:23:29.541Z,7.66
2022-11-28T15:27:31.620Z,7.65
2022-11-28T15:31:33.688Z,7.65
2022-11-28T15:35:35.745Z,7.75
2022-11-28T15:39:41.032Z,7.85
2022-11-28T15:43:45.837Z,7.84
2022-11-28T15:47:49.156Z,7.88
2022-11-28T15:51:56.130Z,7.88
2022-11-28T15:56:15.573Z,7.89
2022-11-28T16:00:21.846Z,7.94
2022-11-28T16:04:24.050Z,7.99
2022-11-28T16:08:33.760Z,7.99
2022-11-28T16:12:36.424Z,8.03
2022-11-28T16:16:39.421Z,8.08
2022-11-28T16:20:42.748Z,8.13
2022-11-28T16:24:55.983Z,8.20
2022-11-28T16:29:06.982Z,8.20
2022-11-28T16:33:38.875Z,8.15
2022-11-28T16:37:40.899Z,8.01
2022-11-28T16:42:16.541Z,7.94
2022-11-28T16:46:24.703Z,7.90
2022-11-28T16:50:26.729Z,7.86
2022-11-28T16:54:31.314Z,7.80
2022-11-28T16:58:33.311Z,7.80
2022-11-28T17:02:35.373Z,7.75
2022-11-28T17:06:37.673Z,7.72
2022-11-28T17:10:39.696Z,7.69
2022-11-28T17:14:43.995Z,7.67
2022-11-28T17:18:46.254Z,7.64
2022-11-28T17:22:50.989Z,7.63
2022-11-28T17:26:54.128Z,7.65
2022-11-28T17:30:56.148Z,7.64
2022-11-28T17:35:03.272Z,7.63
2022-11-28T17:39:05.538Z,7.62
2022-11-28T17:43:16.562Z,7.63
2022-11-28T17:47:18.603Z,7.64
2022-11-28T17:51:20.749Z,7.66
2022-11-28T17:55:22.933Z,7.67
2022-11-28T17:59:26.921Z,7.72
2022-11-28T18:03:29.876Z,7.77
2022-11-28T18:07:32.026Z,7.80
2022-11-28T18:11:35.770Z,7.81
2022-11-28T18:15:39.658Z,7.83
2022-11-28T18:19:42.311Z,7.84
2022-11-28T18:23:47.037Z,7.87
2022-11-28T18:27:49.633Z,7.89
2022-11-28T18:31:51.760Z,7.92
2022-11-28T18:35:54.001Z,7.97
2022-11-28T18:39:56.388Z,7.99
2022-11-28T18:44:00.927Z,8.01
2022-11-28T18:48:03.009Z,8.04
2022-11-28T18:52:05.821Z,8.05
2022-11-28T18:56:08.704Z,8.06
2022-11-28T19:00:11.461Z,8.04
2022-11-28T19:04:15.433Z,8.08
2022-11-28T19:08:18.626Z,8.05
2022-11-28T19:12:20.761Z,8.05
2022-11-28T19:16:29.145Z,8.07
2022-11-28T19:20:31.103Z,8.09
2022-11-28T19:24:33.031Z,8.09
2022-11-28T19:28:35.879Z,8.10
2022-11-28T19:32:38.265Z,8.12
2022-11-28T19:36:43.283Z,8.17
2022-11-28T19:40:45.561Z,8.19
2022-11-28T19:44:47.658Z,8.19
2022-11-28T19:48:51.480Z,8.23
2022-11-28T19:52:54.158Z,8.23
2022-11-28T19:56:56.290Z,8.22
2022-11-28T20:01:09.318Z,8.22
2022-11-28T20:05:11.426Z,8.22
2022-11-28T20:09:13.891Z,8.21
2022-11-28T20:13:18.517Z,8.17
2022-11-28T20:17:20.978Z,8.14
2022-11-28T20:21:23.291Z,8.13
2022-11-28T20:25:25.708Z,8.10
2022-11-28T20:29:28.646Z,8.07
2022-11-28T20:33:30.934Z,8.05
2022-11-28T20:37:33.126Z,8.11
2022-11-28T20:41:35.312Z,8.17
2022-11-28T20:45:37.386Z,8.21
2022-11-28T20:49:39.411Z,8.22
2022-11-28T20:53:41.552Z,8.22
2022-11-28T20:57:43.569Z,8.21
2022-11-28T21:01:45.554Z,8.25
2022-11-28T21:05:47.618Z,8.23
2022-11-28T21:09:49.619Z,8.23
2022-11-28T21:13:52.000Z,8.25
2022-11-28T21:17:54.071Z,8.29
2022-11-28T21:21:56.092Z,8.26
2022-11-28T21:26:03.836Z,8.26
2022-11-28T21:30:06.644Z,8.29
2022-11-28T21:34:14.026Z,8.32
2022-11-28T21:38:16.031Z,8.29
2022-11-28T21:42:20.642Z,8.32
2022-11-28T21:46:23.495Z,8.32
2022-11-28T21:50:25.605Z,8.28
2022-11-28T21:54:28.077Z,8.27
2022-11-28T21:58:30.716Z,8.28
2022-11-28T22:02:33.720Z,8.26
2022-11-28T22:06:35.898Z,8.24
2022-11-28T22:10:38.049Z,8.21
2022-11-28T22:14:41.155Z,8.18
2022-11-28T22:18:43.292Z,8.18
2022-11-28T22:22:48.067Z,8.17
2022-11-28T22:26:50.186Z,8.17
2022-11-28T22:30:53.455Z,8.17
2022-11-28T22:34:55.875Z,8.16
2022-11-28T22:38:58.841Z,8.18
2022-11-28T22:43:01.071Z,8.16
2022-11-28T22:47:03.153Z,8.18
2022-11-28T22:51:15.777Z,8.22
2022-11-28T22:55:18.134Z,8.25
2022-11-28T22:59:20.342Z,8.29
2022-11-28T23:03:23.769Z,8.34
2022-11-28T23:07:26.088Z,8.34
2022-11-28T23:11:32.599Z,8.35
2022-11-28T23:15:34.988Z,8.34
2022-11-28T23:19:37.600Z,8.35
2022-11-28T23:23:40.724Z,8.33
2022-11-28T23:27:42.725Z,8.36
2022-11-28T23:31:46.944Z,8.39
2022-11-28T23:35:49.120Z,8.42
2022-11-28T23:39:51.406Z,8.37
2022-11-28T23:43:54.123Z,8.39
2022-11-28T23:47:56.096Z,8.38
2022-11-28T23:51:58.717Z,8.37
2022-11-28T23:56:13.080Z,8.40
